createdAt,value
2023-04-13T00:00:33.697Z,7.40
2023-04-13T00:03:22.116Z,7.40
2023-04-13T00:06:11.590Z,7.40
2023-04-13T00:09:01.265Z,7.30
2023-04-13T00:11:49.366Z,7.30
2023-04-13T00:14:37.823Z,7.30
2023-04-13T00:17:27.248Z,7.30
2023-04-13T00:20:15.800Z,7.30
2023-04-13T00:23:04.477Z,7.30
2023-04-13T00:25:53.933Z,7.30
2023-04-13T00:28:42.411Z,7.30
2023-04-13T00:31:30.810Z,7.20
2023-04-13T00:34:18.941Z,7.20
2023-04-13T00:37:07.835Z,7.30
2023-04-13T00:39:56.318Z,7.20
2023-04-13T00:42:46.769Z,7.20
2023-04-13T00:45:39.155Z,7.10
2023-04-13T00:48:27.471Z,7.00
2023-04-13T00:51:17.084Z,7.00
2023-04-13T00:54:05.463Z,7.00
2023-04-13T00:56:54.485Z,6.90
2023-04-13T00:59:44.290Z,6.80
2023-04-13T01:02:32.656Z,6.80
2023-04-13T01:05:21.578Z,6.80
2023-04-13T01:08:16.382Z,6.80
2023-04-13T01:11:08.553Z,6.80
2023-04-13T01:14:03.593Z,6.80
2023-04-13T01:16:58.435Z,6.70
2023-04-13T01:19:52.197Z,6.70
2023-04-13T01:22:45.689Z,6.70
2023-04-13T01:25:40.837Z,6.70
2023-04-13T01:28:31.269Z,6.70
2023-04-13T01:31:20.220Z,6.70
2023-04-13T01:34:09.179Z,6.70
2023-04-13T01:36:58.299Z,6.70
2023-04-13T01:39:47.362Z,6.70
2023-04-13T01:42:37.607Z,6.60
2023-04-13T01:45:29.410Z,6.60
2023-04-13T01:48:23.107Z,6.50
2023-04-13T01:51:17.572Z,6.50
2023-04-13T01:54:12.766Z,6.50
2023-04-13T01:57:02.395Z,6.40
2023-04-13T01:59:50.448Z,6.40
2023-04-13T02:02:40.069Z,6.40
2023-04-13T02:05:28.547Z,6.50
2023-04-13T02:08:18.353Z,6.50
2023-04-13T02:11:07.787Z,6.50
2023-04-13T02:13:57.723Z,6.60
2023-04-13T02:16:46.251Z,6.60
2023-04-13T02:19:35.655Z,6.60
2023-04-13T02:22:23.754Z,6.60
2023-04-13T02:25:12.485Z,6.60
2023-04-13T02:28:01.653Z,6.60
2023-04-13T02:30:49.848Z,6.60
2023-04-13T02:33:38.768Z,6.60
2023-04-13T02:36:28.198Z,6.60
2023-04-13T02:39:16.643Z,6.60
2023-04-13T02:42:05.265Z,6.70
2023-04-13T02:44:53.573Z,6.60
2023-04-13T02:47:42.835Z,6.70
2023-04-13T02:50:31.123Z,6.60
2023-04-13T02:53:21.264Z,6.60
2023-04-13T02:56:10.756Z,6.60
2023-04-13T02:58:59.821Z,6.70
2023-04-13T03:01:48.135Z,6.70
2023-04-13T03:04:36.414Z,6.70
2023-04-13T03:07:25.902Z,6.60
2023-04-13T03:10:15.763Z,6.70
2023-04-13T03:13:04.084Z,6.70
2023-04-13T03:15:52.830Z,6.70
2023-04-13T03:18:41.255Z,6.50
2023-04-13T03:21:29.477Z,6.60
2023-04-13T03:24:17.710Z,6.70
2023-04-13T03:27:07.335Z,6.70
2023-04-13T03:29:56.055Z,6.60
2023-04-13T03:32:44.295Z,6.60
2023-04-13T03:35:32.474Z,6.60
2023-04-13T03:38:20.648Z,6.60
2023-04-13T03:41:09.339Z,6.60
2023-04-13T03:43:59.392Z,6.70
2023-04-13T03:46:47.728Z,6.60
2023-04-13T03:49:36.202Z,6.60
2023-04-13T03:52:24.281Z,6.60
2023-04-13T03:55:13.446Z,6.60
2023-04-13T03:58:01.833Z,6.60
2023-04-13T04:00:51.242Z,6.60
2023-04-13T04:03:39.383Z,6.60
2023-04-13T04:06:28.312Z,6.50
2023-04-13T04:09:16.600Z,6.50
2023-04-13T04:12:05.149Z,6.50
2023-04-13T04:14:53.433Z,6.60
2023-04-13T04:17:42.986Z,6.60
2023-04-13T04:20:31.224Z,6.70
2023-04-13T04:23:19.989Z,6.70
2023-04-13T04:26:08.703Z,6.70
2023-04-13T04:29:01.910Z,6.60
2023-04-13T04:31:53.992Z,6.50
2023-04-13T04:34:43.862Z,6.50
2023-04-13T04:37:37.831Z,6.60
2023-04-13T04:40:26.403Z,6.60
2023-04-13T04:43:15.081Z,6.60
2023-04-13T04:46:05.007Z,6.80
2023-04-13T04:48:53.707Z,6.60
2023-04-13T04:51:43.757Z,6.60
2023-04-13T04:54:32.063Z,6.70
2023-04-13T04:57:21.469Z,6.60
2023-04-13T05:00:14.995Z,6.60
2023-04-13T05:03:03.294Z,6.60
2023-04-13T05:05:51.520Z,6.60
2023-04-13T05:08:41.324Z,6.60
2023-04-13T05:11:29.509Z,6.60
2023-04-13T05:14:17.605Z,6.60
2023-04-13T05:17:06.027Z,6.60
2023-04-13T05:19:54.647Z,6.60
2023-04-13T05:22:42.787Z,6.70
2023-04-13T05:25:32.495Z,6.70
2023-04-13T05:28:21.836Z,6.70
2023-04-13T05:31:11.286Z,6.70
2023-04-13T05:33:59.616Z,6.70
2023-04-13T05:36:47.690Z,6.70
2023-04-13T05:39:36.331Z,6.70
2023-04-13T05:42:26.105Z,6.80
2023-04-13T05:45:17.256Z,6.80
2023-04-13T05:48:06.292Z,6.80
2023-04-13T05:50:58.257Z,6.80
2023-04-13T05:53:47.454Z,6.80
2023-04-13T05:56:35.754Z,6.90
2023-04-13T05:59:26.084Z,6.80
2023-04-13T06:02:14.876Z,6.90
2023-04-13T06:05:05.141Z,6.90
2023-04-13T06:07:53.831Z,6.90
2023-04-13T06:10:44.468Z,7.00
2023-04-13T06:13:32.752Z,7.00
2023-04-13T06:16:23.296Z,7.10
2023-04-13T06:19:13.681Z,7.10
2023-04-13T06:22:02.277Z,7.10
2023-04-13T06:24:51.894Z,7.10
2023-04-13T06:27:40.341Z,7.10
2023-04-13T06:30:28.732Z,7.20
2023-04-13T06:33:18.332Z,7.20
2023-04-13T06:36:07.416Z,7.20
2023-04-13T06:38:55.740Z,7.20
2023-04-13T06:41:44.110Z,7.20
2023-04-13T06:44:32.408Z,7.20
2023-04-13T06:47:21.131Z,7.30
2023-04-13T06:50:14.420Z,7.30
2023-04-13T06:53:02.519Z,7.30
2023-04-13T06:55:50.992Z,7.30
2023-04-13T06:58:39.581Z,7.30
2023-04-13T07:01:28.648Z,7.30
2023-04-13T07:04:16.929Z,7.40
2023-04-13T07:07:07.287Z,7.40
2023-04-13T07:09:55.896Z,7.40
2023-04-13T07:12:43.981Z,7.40
2023-04-13T07:15:32.810Z,7.40
2023-04-13T07:18:21.620Z,7.40
2023-04-13T07:21:09.717Z,7.50
2023-04-13T07:23:59.448Z,7.50
2023-04-13T07:26:48.156Z,7.50
2023-04-13T07:29:36.369Z,7.50
2023-04-13T07:32:30.890Z,7.50
2023-04-13T07:35:19.630Z,7.50
2023-04-13T07:38:08.233Z,7.50
2023-04-13T07:40:57.799Z,7.50
2023-04-13T07:43:47.023Z,7.50
2023-04-13T07:46:36.015Z,7.50
2023-04-13T07:49:24.555Z,7.60
2023-04-13T07:52:13.792Z,7.50
2023-04-13T07:55:03.570Z,7.60
2023-04-13T07:57:53.411Z,7.60
2023-04-13T08:00:42.238Z,7.60
2023-04-13T08:03:32.743Z,7.70
2023-04-13T08:06:22.233Z,7.70
2023-04-13T08:09:10.321Z,7.80
2023-04-13T08:11:59.248Z,7.90
2023-04-13T08:14:49.380Z,8.00
2023-04-13T08:17:38.085Z,8.00
2023-04-13T08:20:26.531Z,8.00
2023-04-13T08:23:14.815Z,8.00
2023-04-13T08:26:03.677Z,8.10
2023-04-13T08:28:53.907Z,8.10
2023-04-13T08:31:43.739Z,8.20
2023-04-13T08:34:32.699Z,8.20
2023-04-13T08:37:21.025Z,8.40
2023-04-13T08:40:12.403Z,8.40
2023-04-13T08:43:02.582Z,8.60
2023-04-13T08:45:51.532Z,8.60
2023-04-13T08:49:04.608Z,8.70
2023-04-13T08:51:53.505Z,8.70
2023-04-13T08:54:41.966Z,8.70
2023-04-13T08:57:31.234Z,8.70
2023-04-13T09:00:21.964Z,8.60
2023-04-13T09:03:14.519Z,8.60
2023-04-13T09:06:09.758Z,8.60
2023-04-13T09:08:59.360Z,8.60
2023-04-13T09:11:49.887Z,8.70
2023-04-13T09:14:40.197Z,8.80
2023-04-13T09:17:30.705Z,8.80
2023-04-13T09:20:22.251Z,8.80
2023-04-13T09:23:18.291Z,8.80
2023-04-13T09:26:08.091Z,8.80
2023-04-13T09:28:58.353Z,8.90
2023-04-13T09:31:48.038Z,9.00
2023-04-13T09:34:37.003Z,9.10
2023-04-13T09:37:25.275Z,9.20
2023-04-13T09:40:16.950Z,9.40
2023-04-13T09:43:08.006Z,9.50
2023-04-13T09:45:56.485Z,9.60
2023-04-13T09:48:44.700Z,9.80
2023-04-13T09:51:42.502Z,9.80
2023-04-13T09:54:30.664Z,9.80
2023-04-13T09:57:26.488Z,9.90
2023-04-13T10:00:21.138Z,10.00
2023-04-13T10:03:12.348Z,10.10
2023-04-13T10:06:01.440Z,10.20
2023-04-13T10:08:49.719Z,10.30
2023-04-13T10:11:40.679Z,10.30
2023-04-13T10:14:35.153Z,10.20
2023-04-13T10:17:40.994Z,10.30
2023-04-13T10:20:30.477Z,10.40
2023-04-13T10:23:20.302Z,10.50
2023-04-13T10:26:08.582Z,10.60
2023-04-13T10:28:57.125Z,10.60
2023-04-13T10:31:48.300Z,10.70
2023-04-13T10:34:38.307Z,10.70
2023-04-13T10:37:29.926Z,10.70
2023-04-13T10:40:18.009Z,10.80
2023-04-13T10:43:06.529Z,10.80
2023-04-13T10:46:07.225Z,10.80
2023-04-13T10:48:59.382Z,10.70
2023-04-13T10:51:47.879Z,10.60
2023-04-13T10:54:36.762Z,10.60
2023-04-13T10:57:25.162Z,10.60
2023-04-13T11:00:22.135Z,10.60
2023-04-13T11:03:17.433Z,10.70
2023-04-13T11:06:08.371Z,10.80
2023-04-13T11:09:04.896Z,10.90
2023-04-13T11:11:53.603Z,10.90
2023-04-13T11:14:41.915Z,10.90
2023-04-13T11:17:30.724Z,10.80
2023-04-13T11:20:19.663Z,10.60
2023-04-13T11:23:18.629Z,10.60
2023-04-13T11:26:07.266Z,10.70
2023-04-13T11:28:58.165Z,10.90
2023-04-13T11:31:46.887Z,11.10
2023-04-13T11:34:35.064Z,11.00
2023-04-13T11:37:25.093Z,10.80
2023-04-13T11:40:20.280Z,10.70
2023-04-13T11:43:09.188Z,10.60
2023-04-13T11:45:57.473Z,10.70
2023-04-13T11:48:46.728Z,10.80
2023-04-13T11:51:35.605Z,10.80
2023-04-13T11:54:24.283Z,10.90
2023-04-13T11:57:14.541Z,10.90
2023-04-13T12:00:10.803Z,11.10
2023-04-13T12:03:02.224Z,11.10
2023-04-13T12:06:01.599Z,11.00
2023-04-13T12:08:56.132Z,10.90
2023-04-13T12:11:50.341Z,11.10
2023-04-13T12:20:26.354Z,11.20
2023-04-13T12:23:22.804Z,11.30
2023-04-13T12:26:48.889Z,11.50
2023-04-13T12:29:23.666Z,11.70
2023-04-13T12:32:15.434Z,11.90
2023-04-13T12:35:03.883Z,12.10
2023-04-13T12:37:52.705Z,12.30
2023-04-13T12:40:41.273Z,12.50
2023-04-13T12:43:29.801Z,12.60
2023-04-13T12:46:17.943Z,12.70
2023-04-13T12:49:07.977Z,12.70
2023-04-13T12:51:56.448Z,12.70
2023-04-13T12:54:44.498Z,12.60
2023-04-13T12:57:32.936Z,12.40
2023-04-13T13:00:22.608Z,12.10
2023-04-13T13:03:14.896Z,11.90
2023-04-13T13:06:06.410Z,11.60
2023-04-13T13:08:54.906Z,11.50
2023-04-13T13:11:43.052Z,11.60
2023-04-13T13:14:32.927Z,11.70
2023-04-13T13:17:21.477Z,11.90
2023-04-13T13:20:11.965Z,12.10
2023-04-13T13:23:01.467Z,12.20
2023-04-13T13:26:04.387Z,12.30
2023-04-13T13:28:59.333Z,12.40
2023-04-13T13:31:47.782Z,12.40
2023-04-13T13:34:36.115Z,12.30
2023-04-13T13:37:24.375Z,12.30
2023-04-13T13:40:14.777Z,12.20
2023-04-13T13:43:04.357Z,12.10
2023-04-13T13:45:52.899Z,11.80
2023-04-13T13:48:41.222Z,11.40
2023-04-13T13:51:29.435Z,11.20
2023-04-13T13:54:17.850Z,10.90
2023-04-13T13:57:07.843Z,10.60
2023-04-13T13:59:56.272Z,10.70
2023-04-13T14:02:45.185Z,11.00
2023-04-13T14:05:33.488Z,11.20
2023-04-13T14:08:21.598Z,11.50
2023-04-13T14:11:12.640Z,11.70
2023-04-13T14:14:10.786Z,11.90
2023-04-13T14:17:07.644Z,12.20
2023-04-13T14:19:56.038Z,12.40
2023-04-13T14:22:44.100Z,12.60
2023-04-13T14:25:32.721Z,12.70
2023-04-13T14:28:21.403Z,12.80
2023-04-13T14:31:11.308Z,13.00
2023-04-13T14:33:59.707Z,13.20
2023-04-13T14:36:50.574Z,13.40
2023-04-13T14:39:40.447Z,13.60
2023-04-13T14:42:29.884Z,13.70
2023-04-13T14:45:18.259Z,13.80
2023-04-13T14:48:08.254Z,13.80
2023-04-13T14:50:56.685Z,13.90
2023-04-13T14:53:44.919Z,13.90
2023-04-13T14:56:33.401Z,14.00
2023-04-13T14:59:21.546Z,14.10
2023-04-13T15:02:10.576Z,14.10
2023-04-13T15:05:00.465Z,14.10
2023-04-13T15:07:48.658Z,13.90
2023-04-13T15:10:37.148Z,13.70
2023-04-13T15:13:25.311Z,13.40
2023-04-13T15:16:13.759Z,13.00
2023-04-13T15:19:02.036Z,12.70
2023-04-13T15:21:51.763Z,12.40
2023-04-13T15:24:39.780Z,12.10
2023-04-13T15:27:28.111Z,11.90
2023-04-13T15:30:16.250Z,11.80
2023-04-13T15:33:05.057Z,11.80
2023-04-13T15:35:53.677Z,11.70
2023-04-13T15:38:43.487Z,11.60
2023-04-13T15:41:31.631Z,11.50
2023-04-13T15:44:19.722Z,11.50
2023-04-13T15:47:08.155Z,11.50
2023-04-13T15:49:56.398Z,11.60
2023-04-13T15:52:44.634Z,11.60
2023-04-13T15:55:34.592Z,11.60
2023-04-13T15:58:22.699Z,11.60
2023-04-13T16:01:12.436Z,11.60
2023-04-13T16:04:00.910Z,11.70
2023-04-13T16:07:05.199Z,11.70
2023-04-13T16:09:58.366Z,11.90
2023-04-13T16:12:50.125Z,11.90
2023-04-13T16:15:38.490Z,11.80
2023-04-13T16:18:28.828Z,11.90
2023-04-13T16:21:19.550Z,11.80
2023-04-13T16:24:08.553Z,11.80
2023-04-13T16:26:57.306Z,11.80
2023-04-13T16:29:47.161Z,11.90
2023-04-13T16:32:35.793Z,11.90
2023-04-13T16:35:24.289Z,11.90
2023-04-13T16:38:12.684Z,12.00
2023-04-13T16:41:00.719Z,12.00
2023-04-13T16:43:48.800Z,12.10
2023-04-13T16:46:38.374Z,12.20
2023-04-13T16:49:26.813Z,12.10
2023-04-13T16:52:14.900Z,12.10
2023-04-13T16:55:03.777Z,12.00
2023-04-13T16:57:52.253Z,11.90
2023-04-13T17:00:40.576Z,11.90
2023-04-13T17:03:30.438Z,11.90
2023-04-13T17:06:19.021Z,11.80
2023-04-13T17:09:07.913Z,11.80
2023-04-13T17:11:56.527Z,11.70
2023-04-13T17:14:45.655Z,11.60
2023-04-13T17:17:34.050Z,11.70
2023-04-13T17:20:23.832Z,11.60
2023-04-13T17:23:12.571Z,11.60
2023-04-13T17:26:00.863Z,11.60
2023-04-13T17:28:48.827Z,11.60
2023-04-13T17:31:37.739Z,11.70
2023-04-13T17:34:25.907Z,11.70
2023-04-13T17:37:15.787Z,11.60
2023-04-13T17:40:04.428Z,11.60
2023-04-13T17:42:52.417Z,11.50
2023-04-13T17:45:41.015Z,11.50
2023-04-13T17:48:29.179Z,11.40
2023-04-13T17:51:17.395Z,11.30
2023-04-13T17:54:09.184Z,11.20
2023-04-13T17:56:57.860Z,11.30
2023-04-13T17:59:46.727Z,11.20
2023-04-13T18:02:34.968Z,11.10
2023-04-13T18:05:23.768Z,11.10
2023-04-13T18:08:12.233Z,11.00
2023-04-13T18:11:01.851Z,10.90
2023-04-13T18:13:49.959Z,10.80
2023-04-13T18:16:38.514Z,10.80
2023-04-13T18:19:28.367Z,10.80
2023-04-13T18:22:16.961Z,10.70
2023-04-13T18:25:05.573Z,10.70
2023-04-13T18:27:55.286Z,10.60
2023-04-13T18:30:43.746Z,10.50
2023-04-13T18:33:32.230Z,10.40
2023-04-13T18:36:20.405Z,10.40
2023-04-13T18:39:08.474Z,10.20
2023-04-13T18:41:56.486Z,10.10
2023-04-13T18:44:45.932Z,10.00
2023-04-13T18:47:34.762Z,10.00
2023-04-13T18:50:22.980Z,9.90
2023-04-13T18:53:10.971Z,9.80
2023-04-13T18:55:59.607Z,9.70
2023-04-13T18:58:47.638Z,9.70
2023-04-13T19:01:37.461Z,9.60
2023-04-13T19:04:25.758Z,9.60
2023-04-13T19:07:13.909Z,9.60
2023-04-13T19:10:01.919Z,9.50
2023-04-13T19:12:50.023Z,9.40
2023-04-13T19:15:39.124Z,9.30
2023-04-13T19:18:28.574Z,9.30
2023-04-13T19:21:18.420Z,9.30
2023-04-13T19:24:06.963Z,9.20
2023-04-13T19:26:55.830Z,9.20
2023-04-13T19:29:43.917Z,9.20
2023-04-13T19:32:32.021Z,9.20
2023-04-13T19:35:24.298Z,9.10
2023-04-13T19:38:13.333Z,9.10
2023-04-13T19:41:01.957Z,9.10
2023-04-13T19:43:54.595Z,9.10
2023-04-13T19:46:43.683Z,9.00
2023-04-13T19:49:33.782Z,9.10
2023-04-13T19:52:25.498Z,9.00
2023-04-13T19:55:15.716Z,9.00
2023-04-13T19:58:05.470Z,8.90
2023-04-13T20:00:55.163Z,8.90
2023-04-13T20:03:44.534Z,8.90
2023-04-13T20:06:34.709Z,8.80
2023-04-13T20:09:25.268Z,8.80
2023-04-13T20:12:14.721Z,8.70
2023-04-13T20:15:04.062Z,8.70
2023-04-13T20:17:52.892Z,8.70
2023-04-13T20:20:42.458Z,8.60
2023-04-13T20:23:32.297Z,8.70
2023-04-13T20:26:22.584Z,8.60
2023-04-13T20:29:11.378Z,8.60
2023-04-13T20:31:59.721Z,8.50
2023-04-13T20:34:48.954Z,8.50
2023-04-13T20:37:37.531Z,8.50
2023-04-13T20:40:27.214Z,8.40
2023-04-13T20:43:18.195Z,8.40
2023-04-13T20:46:06.734Z,8.40
2023-04-13T20:48:56.172Z,8.40
2023-04-13T20:51:44.466Z,8.40
2023-04-13T20:54:32.987Z,8.30
2023-04-13T20:57:22.192Z,8.30
2023-04-13T21:00:16.025Z,8.20
2023-04-13T21:03:09.375Z,8.20
2023-04-13T21:05:58.241Z,8.20
2023-04-13T21:08:46.806Z,8.20
2023-04-13T21:11:36.126Z,8.20
2023-04-13T21:14:25.040Z,8.20
2023-04-13T21:17:15.063Z,8.20
2023-04-13T21:20:06.489Z,8.20
2023-04-13T21:22:55.198Z,8.20
2023-04-13T21:25:44.668Z,8.20
2023-04-13T21:28:33.532Z,8.10
2023-04-13T21:31:22.030Z,8.10
2023-04-13T21:34:11.977Z,8.10
2023-04-13T21:37:02.131Z,8.00
2023-04-13T21:39:51.024Z,8.00
2023-04-13T21:42:41.883Z,8.00
2023-04-13T21:45:30.158Z,8.00
2023-04-13T21:48:18.400Z,7.90
2023-04-13T21:51:09.972Z,7.90
2023-04-13T21:53:59.268Z,7.90
2023-04-13T21:56:49.075Z,7.90
2023-04-13T21:59:37.851Z,7.80
2023-04-13T22:02:26.179Z,7.70
2023-04-13T22:05:16.878Z,7.60
2023-04-13T22:08:07.700Z,7.60
2023-04-13T22:10:56.323Z,7.60
2023-04-13T22:13:45.093Z,7.60
2023-04-13T22:16:33.686Z,7.50
2023-04-13T22:19:21.933Z,7.50
2023-04-13T22:22:10.206Z,7.40
2023-04-13T22:25:00.194Z,7.40
2023-04-13T22:27:48.494Z,7.50
2023-04-13T22:30:36.863Z,7.50
2023-04-13T22:33:25.927Z,7.50
2023-04-13T22:36:19.719Z,7.50
2023-04-13T22:39:08.205Z,7.40
2023-04-13T22:41:58.862Z,7.40
2023-04-13T22:44:47.688Z,7.40
2023-04-13T22:47:37.148Z,7.40
2023-04-13T22:50:25.692Z,7.30
2023-04-13T22:53:13.877Z,7.30
2023-04-13T22:56:02.448Z,7.30
2023-04-13T22:58:52.306Z,7.20
2023-04-13T23:01:41.074Z,7.20
2023-04-13T23:04:29.591Z,7.20
2023-04-13T23:07:17.781Z,7.20
2023-04-13T23:10:06.814Z,7.10
2023-04-13T23:12:55.605Z,7.10
2023-04-13T23:15:45.553Z,7.10
2023-04-13T23:18:33.744Z,7.10
2023-04-13T23:21:22.296Z,7.00
2023-04-13T23:24:10.725Z,7.00
2023-04-13T23:26:59.376Z,7.00
2023-04-13T23:29:51.302Z,6.90
2023-04-13T23:32:41.418Z,6.90
2023-04-13T23:35:29.589Z,6.90
2023-04-13T23:38:17.744Z,6.80
2023-04-13T23:41:06.744Z,6.80
2023-04-13T23:43:55.662Z,6.80
2023-04-13T23:46:44.573Z,6.80
2023-04-13T23:49:34.746Z,6.80
2023-04-13T23:52:23.340Z,6.70
2023-04-13T23:55:11.662Z,6.70
2023-04-13T23:58:00.641Z,6.70
